createdAt,value
2023-02-06T00:00:50.907Z,58.59
2023-02-06T00:03:37.569Z,56.01
2023-02-06T00:06:04.306Z,58.06
2023-02-06T00:08:31.122Z,60.10
2023-02-06T00:10:57.712Z,61.96
2023-02-06T00:13:24.277Z,63.83
2023-02-06T00:15:50.934Z,60.71
2023-02-06T00:18:17.637Z,56.16
2023-02-06T00:20:44.176Z,56.85
2023-02-06T00:23:11.341Z,59.00
2023-02-06T00:25:38.055Z,60.82
2023-02-06T00:28:04.968Z,62.68
2023-02-06T00:30:31.639Z,63.42
2023-02-06T00:32:58.197Z,59.13
2023-02-06T00:35:25.034Z,55.81
2023-02-06T00:37:51.702Z,57.62
2023-02-06T00:40:18.412Z,59.77
2023-02-06T00:42:45.012Z,61.55
2023-02-06T00:45:11.563Z,63.44
2023-02-06T00:47:38.222Z,61.22
2023-02-06T00:50:05.612Z,56.43
2023-02-06T00:52:32.194Z,56.78
2023-02-06T00:54:58.778Z,58.96
2023-02-06T00:57:25.324Z,60.87
2023-02-06T00:59:53.754Z,62.75
2023-02-06T01:02:20.939Z,63.38
2023-02-06T01:04:47.480Z,59.01
2023-02-06T01:07:14.095Z,55.92
2023-02-06T01:09:40.952Z,57.74
2023-02-06T01:12:07.621Z,59.95
2023-02-06T01:14:34.178Z,61.74
2023-02-06T01:17:00.711Z,63.76
2023-02-06T01:19:27.266Z,61.74
2023-02-06T01:21:53.763Z,56.78
2023-02-06T01:24:20.746Z,56.66
2023-02-06T01:26:47.222Z,58.96
2023-02-06T01:29:13.774Z,60.82
2023-02-06T01:31:40.352Z,62.52
2023-02-06T01:34:07.519Z,63.72
2023-02-06T01:36:34.121Z,59.55
2023-02-06T01:39:00.731Z,55.51
2023-02-06T01:41:27.419Z,57.08
2023-02-06T01:44:07.488Z,59.40
2023-02-06T01:46:34.097Z,61.43
2023-02-06T01:49:01.057Z,63.44
2023-02-06T01:51:28.853Z,61.13
2023-02-06T01:54:02.637Z,56.00
2023-02-06T01:56:38.110Z,56.57
2023-02-06T01:59:04.804Z,59.14
2023-02-06T02:01:32.200Z,60.97
2023-02-06T02:04:08.639Z,62.93
2023-02-06T02:06:35.389Z,62.55
2023-02-06T02:09:03.299Z,57.63
2023-02-06T02:11:37.199Z,56.80
2023-02-06T02:14:07.564Z,59.04
2023-02-06T02:16:51.753Z,61.15
2023-02-06T02:19:30.211Z,63.50
2023-02-06T02:22:23.592Z,61.04
2023-02-06T02:25:21.042Z,55.96
2023-02-06T02:28:33.740Z,57.62
2023-02-06T02:31:55.741Z,60.32
2023-02-06T02:35:01.840Z,62.98
2023-02-06T02:38:07.986Z,61.91
2023-02-06T02:40:55.519Z,55.89
2023-02-06T02:44:05.576Z,57.32
2023-02-06T02:46:42.857Z,60.16
2023-02-06T02:49:20.460Z,62.14
2023-02-06T02:51:48.592Z,63.87
2023-02-06T02:54:15.138Z,60.71
2023-02-06T02:56:41.951Z,55.89
2023-02-06T02:59:28.861Z,56.34
2023-02-06T03:02:03.678Z,58.76
2023-02-06T03:04:37.921Z,60.51
2023-02-06T03:07:09.651Z,62.12
2023-02-06T03:09:46.169Z,64.01
2023-02-06T03:12:41.836Z,60.91
2023-02-06T03:15:43.359Z,55.62
2023-02-06T03:18:22.587Z,57.10
2023-02-06T03:20:49.444Z,59.25
2023-02-06T03:23:23.470Z,60.87
2023-02-06T03:25:52.735Z,62.09
2023-02-06T03:28:35.711Z,64.01
2023-02-06T03:31:06.799Z,60.67
2023-02-06T03:33:39.967Z,55.53
2023-02-06T03:36:09.415Z,56.23
2023-02-06T03:38:36.189Z,58.35
2023-02-06T03:41:03.536Z,60.11
2023-02-06T03:43:30.231Z,61.62
2023-02-06T03:46:02.392Z,63.33
2023-02-06T03:48:40.320Z,60.85
2023-02-06T03:51:17.386Z,55.66
2023-02-06T03:53:45.201Z,56.58
2023-02-06T03:56:37.877Z,58.77
2023-02-06T03:59:04.581Z,60.62
2023-02-06T04:01:31.638Z,61.98
2023-02-06T04:03:58.462Z,63.82
2023-02-06T04:06:25.175Z,61.35
2023-02-06T04:08:51.774Z,56.31
2023-02-06T04:11:18.406Z,56.24
2023-02-06T04:13:47.468Z,58.24
2023-02-06T04:16:13.973Z,59.98
2023-02-06T04:18:40.541Z,61.47
2023-02-06T04:21:07.456Z,63.01
2023-02-06T04:23:34.301Z,62.70
2023-02-06T04:26:01.144Z,57.75
2023-02-06T04:28:27.790Z,56.30
2023-02-06T04:30:54.415Z,58.25
2023-02-06T04:33:21.067Z,60.09
2023-02-06T04:35:48.389Z,61.63
2023-02-06T04:38:15.123Z,63.33
2023-02-06T04:40:42.111Z,61.52
2023-02-06T04:43:08.947Z,56.64
2023-02-06T04:45:35.931Z,56.39
2023-02-06T04:48:02.725Z,58.48
2023-02-06T04:50:31.287Z,60.32
2023-02-06T04:52:58.029Z,61.73
2023-02-06T04:55:24.546Z,63.64
2023-02-06T04:57:51.146Z,61.57
2023-02-06T05:00:17.860Z,56.45
2023-02-06T05:02:44.412Z,56.24
2023-02-06T05:05:11.228Z,58.26
2023-02-06T05:07:37.839Z,60.16
2023-02-06T05:10:05.168Z,61.55
2023-02-06T05:12:31.776Z,63.45
2023-02-06T05:14:58.310Z,61.77
2023-02-06T05:17:24.900Z,56.73
2023-02-06T05:19:51.461Z,56.51
2023-02-06T05:22:18.042Z,58.69
2023-02-06T05:24:44.649Z,60.68
2023-02-06T05:27:11.168Z,62.42
2023-02-06T05:29:37.831Z,63.39
2023-02-06T05:32:04.646Z,59.17
2023-02-06T05:34:31.206Z,55.49
2023-02-06T05:36:57.836Z,57.13
2023-02-06T05:39:25.947Z,58.84
2023-02-06T05:41:52.522Z,60.46
2023-02-06T05:44:19.107Z,61.77
2023-02-06T05:46:47.691Z,63.60
2023-02-06T05:49:14.796Z,61.21
2023-02-06T05:51:41.330Z,55.98
2023-02-06T05:54:07.935Z,56.45
2023-02-06T05:56:34.500Z,58.65
2023-02-06T05:59:01.449Z,60.60
2023-02-06T06:01:28.571Z,62.08
2023-02-06T06:03:55.825Z,63.96
2023-02-06T06:06:22.411Z,60.92
2023-02-06T06:08:48.880Z,55.59
2023-02-06T06:11:15.452Z,56.27
2023-02-06T06:13:42.009Z,58.55
2023-02-06T06:16:08.549Z,60.52
2023-02-06T06:18:35.182Z,61.88
2023-02-06T06:21:01.812Z,63.76
2023-02-06T06:23:28.431Z,61.48
2023-02-06T06:25:54.999Z,56.45
2023-02-06T06:28:21.504Z,56.52
2023-02-06T06:30:48.022Z,58.63
2023-02-06T06:33:15.828Z,60.30
2023-02-06T06:35:42.397Z,61.90
2023-02-06T06:38:09.025Z,63.75
2023-02-06T06:40:35.584Z,61.55
2023-02-06T06:43:03.334Z,56.76
2023-02-06T06:45:29.885Z,56.66
2023-02-06T06:47:56.806Z,58.93
2023-02-06T06:50:23.577Z,60.71
2023-02-06T06:52:50.113Z,62.23
2023-02-06T06:55:18.844Z,64.17
2023-02-06T06:57:46.634Z,61.34
2023-02-06T07:00:14.802Z,55.96
2023-02-06T07:02:42.415Z,56.73
2023-02-06T07:05:09.655Z,59.20
2023-02-06T07:07:38.342Z,61.13
2023-02-06T07:10:07.005Z,63.15
2023-02-06T07:12:33.762Z,61.06
2023-02-06T07:15:00.375Z,56.63
2023-02-06T07:17:27.020Z,57.31
2023-02-06T07:19:53.651Z,59.40
2023-02-06T07:22:21.011Z,61.20
2023-02-06T07:24:48.172Z,62.97
2023-02-06T07:27:15.380Z,62.97
2023-02-06T07:29:42.223Z,59.12
2023-02-06T07:32:09.508Z,55.50
2023-02-06T07:34:36.276Z,57.01
2023-02-06T07:37:04.056Z,59.18
2023-02-06T07:39:30.735Z,61.13
2023-02-06T07:41:57.223Z,62.58
2023-02-06T07:44:23.784Z,63.72
2023-02-06T07:46:52.157Z,59.73
2023-02-06T07:49:18.711Z,55.83
2023-02-06T07:51:45.846Z,57.25
2023-02-06T07:54:12.705Z,59.21
2023-02-06T07:56:39.680Z,60.85
2023-02-06T07:59:07.162Z,62.23
2023-02-06T08:01:33.912Z,64.01
2023-02-06T08:04:00.680Z,61.09
2023-02-06T08:06:27.436Z,56.03
2023-02-06T08:08:55.789Z,56.43
2023-02-06T08:11:25.456Z,58.68
2023-02-06T08:13:52.107Z,60.09
2023-02-06T08:16:21.703Z,61.26
2023-02-06T08:18:48.867Z,62.29
2023-02-06T08:21:20.189Z,64.05
2023-02-06T08:23:47.916Z,60.40
2023-02-06T08:26:18.180Z,55.89
2023-02-06T08:28:46.929Z,56.97
2023-02-06T08:31:18.915Z,59.40
2023-02-06T08:33:45.994Z,60.91
2023-02-06T08:36:14.109Z,62.53
2023-02-06T08:38:41.332Z,62.68
2023-02-06T08:41:21.849Z,57.44
2023-02-06T08:43:50.459Z,56.96
2023-02-06T08:46:19.219Z,58.76
2023-02-06T08:48:46.127Z,60.41
2023-02-06T08:51:13.790Z,61.26
2023-02-06T08:53:40.764Z,62.13
2023-02-06T08:56:11.566Z,63.72
2023-02-06T08:58:38.940Z,60.97
2023-02-06T09:01:13.061Z,55.50
2023-02-06T09:03:41.158Z,55.41
2023-02-06T09:06:10.226Z,57.10
2023-02-06T09:08:38.910Z,58.26
2023-02-06T09:11:07.110Z,59.22
2023-02-06T09:13:34.225Z,60.04
2023-02-06T09:16:00.988Z,60.51
2023-02-06T09:18:27.669Z,61.30
2023-02-06T09:21:10.868Z,62.03
2023-02-06T09:23:39.433Z,63.42
2023-02-06T09:26:06.224Z,60.54
2023-02-06T09:28:33.376Z,54.71
2023-02-06T09:31:00.066Z,54.15
2023-02-06T09:33:26.915Z,55.92
2023-02-06T09:36:03.455Z,57.23
2023-02-06T09:38:30.599Z,57.72
2023-02-06T09:40:59.279Z,58.41
2023-02-06T09:43:26.469Z,59.20
2023-02-06T09:46:00.299Z,59.30
2023-02-06T09:48:30.185Z,59.05
2023-02-06T09:51:21.750Z,58.96
2023-02-06T09:53:57.112Z,59.18
2023-02-06T09:56:36.918Z,59.34
2023-02-06T09:59:21.561Z,59.27
2023-02-06T10:02:05.603Z,59.57
2023-02-06T10:04:52.709Z,59.85
2023-02-06T10:07:32.606Z,59.80
2023-02-06T10:10:05.540Z,59.44
2023-02-06T10:12:40.552Z,59.41
2023-02-06T10:15:20.251Z,59.14
2023-02-06T10:17:57.389Z,59.12
2023-02-06T10:20:33.529Z,59.03
2023-02-06T10:23:18.086Z,58.30
2023-02-06T10:26:07.362Z,58.18
2023-02-06T10:28:34.800Z,58.02
2023-02-06T10:31:38.579Z,54.65
2023-02-06T10:34:19.976Z,53.18
2023-02-06T10:37:08.180Z,52.50
2023-02-06T10:39:49.972Z,51.04
2023-02-06T10:42:55.965Z,50.24
2023-02-06T10:45:50.288Z,50.30
2023-02-06T10:48:33.445Z,51.88
2023-02-06T10:51:14.314Z,50.09
2023-02-06T10:54:33.354Z,46.59
2023-02-06T10:57:00.366Z,44.89
2023-02-06T10:59:42.941Z,44.34
2023-02-06T11:02:11.177Z,43.55
2023-02-06T11:04:45.328Z,43.12
2023-02-06T11:07:26.926Z,40.91
2023-02-06T11:09:53.877Z,40.10
2023-02-06T11:12:32.975Z,38.63
2023-02-06T11:15:07.061Z,38.36
2023-02-06T11:17:34.146Z,38.08
2023-02-06T11:20:22.606Z,38.09
2023-02-06T11:22:52.995Z,38.34
2023-02-06T11:25:33.309Z,38.68
2023-02-06T11:28:00.258Z,39.61
2023-02-06T11:30:41.610Z,40.33
2023-02-06T11:33:19.816Z,40.91
2023-02-06T11:36:00.604Z,41.22
2023-02-06T11:38:29.812Z,42.17
2023-02-06T11:41:17.336Z,42.76
2023-02-06T11:43:46.335Z,42.97
2023-02-06T11:46:23.126Z,43.41
2023-02-06T11:48:55.476Z,44.19
2023-02-06T11:51:45.260Z,44.59
2023-02-06T11:54:21.729Z,45.20
2023-02-06T11:57:09.432Z,45.66
2023-02-06T11:59:38.278Z,46.07
2023-02-06T12:02:29.906Z,46.42
2023-02-06T12:05:01.704Z,46.41
2023-02-06T12:07:37.898Z,46.68
2023-02-06T12:10:17.111Z,46.25
2023-02-06T12:12:49.160Z,44.98
2023-02-06T12:15:45.414Z,45.33
2023-02-06T12:18:20.473Z,45.63
2023-02-06T12:21:03.451Z,46.21
2023-02-06T12:23:48.647Z,46.18
2023-02-06T12:26:20.294Z,46.35
2023-02-06T12:29:08.969Z,46.79
2023-02-06T12:31:42.369Z,47.49
2023-02-06T12:34:59.788Z,47.63
2023-02-06T12:37:47.600Z,47.27
2023-02-06T12:40:43.103Z,47.65
2023-02-06T12:43:15.351Z,47.99
2023-02-06T12:45:49.832Z,47.93
2023-02-06T12:48:18.422Z,48.38
2023-02-06T12:51:12.859Z,47.92
2023-02-06T12:53:46.026Z,47.75
2023-02-06T12:56:32.651Z,47.03
2023-02-06T12:59:14.708Z,46.67
2023-02-06T13:01:56.277Z,46.91
2023-02-06T13:04:27.410Z,47.50
2023-02-06T13:06:58.969Z,47.13
2023-02-06T13:09:31.718Z,46.55
2023-02-06T13:12:20.318Z,46.20
2023-02-06T13:14:59.321Z,45.99
2023-02-06T13:17:38.654Z,46.01
2023-02-06T13:20:14.960Z,46.30
2023-02-06T13:22:53.844Z,45.91
2023-02-06T13:25:31.982Z,44.80
2023-02-06T13:28:22.017Z,44.29
2023-02-06T13:30:59.398Z,44.64
2023-02-06T13:33:38.921Z,44.74
2023-02-06T13:36:16.689Z,45.37
2023-02-06T13:38:43.327Z,45.76
2023-02-06T13:41:15.671Z,46.07
2023-02-06T13:43:58.404Z,46.24
2023-02-06T13:46:32.789Z,46.00
2023-02-06T13:49:20.283Z,46.30
2023-02-06T13:52:18.302Z,46.15
2023-02-06T13:55:06.471Z,46.06
2023-02-06T13:58:12.251Z,46.50
2023-02-06T14:00:42.548Z,45.75
2023-02-06T14:03:33.460Z,46.07
2023-02-06T14:06:15.078Z,46.52
2023-02-06T14:09:16.136Z,46.62
2023-02-06T14:12:43.780Z,46.19
2023-02-06T14:15:35.742Z,46.27
2023-02-06T14:18:43.026Z,46.75
2023-02-06T14:21:34.740Z,47.77
2023-02-06T14:24:16.367Z,49.17
2023-02-06T14:27:26.871Z,49.78
2023-02-06T14:30:32.868Z,49.60
2023-02-06T14:33:53.311Z,49.75
2023-02-06T14:36:53.462Z,49.73
2023-02-06T14:39:47.430Z,50.58
2023-02-06T14:42:38.049Z,51.04
2023-02-06T14:45:18.078Z,51.17
2023-02-06T14:47:44.608Z,51.23
2023-02-06T14:50:27.229Z,50.91
2023-02-06T14:53:02.194Z,50.80
2023-02-06T14:55:33.237Z,50.44
2023-02-06T14:57:59.921Z,50.45
2023-02-06T15:00:28.044Z,51.11
2023-02-06T15:03:18.653Z,51.13
2023-02-06T15:05:47.318Z,51.87
2023-02-06T15:08:19.554Z,52.25
2023-02-06T15:10:46.762Z,52.35
2023-02-06T15:13:34.347Z,52.70
2023-02-06T15:16:08.702Z,53.07
2023-02-06T15:18:36.354Z,53.46
2023-02-06T15:21:06.099Z,53.46
2023-02-06T15:24:23.572Z,53.09
2023-02-06T15:27:06.152Z,53.67
2023-02-06T15:29:32.695Z,53.94
2023-02-06T15:32:21.138Z,54.16
2023-02-06T15:34:47.692Z,53.99
2023-02-06T15:37:22.588Z,54.35
2023-02-06T15:39:49.733Z,54.57
2023-02-06T15:42:16.436Z,55.54
2023-02-06T15:44:43.120Z,56.78
2023-02-06T15:47:14.365Z,57.31
2023-02-06T15:49:47.372Z,57.80
2023-02-06T15:52:34.663Z,58.03
2023-02-06T15:55:02.301Z,58.41
2023-02-06T15:57:38.106Z,58.58
2023-02-06T16:00:08.938Z,59.03
2023-02-06T16:02:37.134Z,59.17
2023-02-06T16:05:05.973Z,59.83
2023-02-06T16:07:35.435Z,60.36
2023-02-06T16:10:07.933Z,60.08
2023-02-06T16:12:36.784Z,59.13
2023-02-06T16:15:40.279Z,59.93
2023-02-06T16:18:28.624Z,59.41
2023-02-06T16:21:16.398Z,59.83
2023-02-06T16:23:59.467Z,60.36
2023-02-06T16:26:27.197Z,59.94
2023-02-06T16:29:14.728Z,59.80
2023-02-06T16:31:43.805Z,60.33
2023-02-06T16:34:38.309Z,60.39
2023-02-06T16:37:11.341Z,60.68
2023-02-06T16:39:41.746Z,60.77
2023-02-06T16:42:35.567Z,61.07
2023-02-06T16:45:17.218Z,61.22
2023-02-06T16:47:44.011Z,61.47
2023-02-06T16:50:14.088Z,61.47
2023-02-06T16:52:47.735Z,61.74
2023-02-06T16:55:20.881Z,61.98
2023-02-06T16:57:52.737Z,63.53
2023-02-06T17:00:24.058Z,62.72
2023-02-06T17:02:52.487Z,57.05
2023-02-06T17:05:21.773Z,55.40
2023-02-06T17:07:48.975Z,56.70
2023-02-06T17:10:24.492Z,57.84
2023-02-06T17:12:52.611Z,58.40
2023-02-06T17:15:20.673Z,59.31
2023-02-06T17:17:48.993Z,59.82
2023-02-06T17:20:31.623Z,60.89
2023-02-06T17:22:58.479Z,62.30
2023-02-06T17:25:25.730Z,63.83
2023-02-06T17:27:52.971Z,61.81
2023-02-06T17:30:22.517Z,56.32
2023-02-06T17:32:49.206Z,55.29
2023-02-06T17:35:16.970Z,56.75
2023-02-06T17:37:43.642Z,58.06
2023-02-06T17:40:22.671Z,58.97
2023-02-06T17:42:49.871Z,59.92
2023-02-06T17:45:16.779Z,60.76
2023-02-06T17:47:43.746Z,61.17
2023-02-06T17:50:17.804Z,61.74
2023-02-06T17:52:44.490Z,63.44
2023-02-06T17:55:11.613Z,62.12
2023-02-06T17:57:38.715Z,56.76
2023-02-06T18:00:12.596Z,55.81
2023-02-06T18:02:39.131Z,57.82
2023-02-06T18:05:07.290Z,59.59
2023-02-06T18:07:35.401Z,61.44
2023-02-06T18:10:01.999Z,63.34
2023-02-06T18:12:28.563Z,61.06
2023-02-06T18:14:55.106Z,55.94
2023-02-06T18:17:22.430Z,56.25
2023-02-06T18:19:50.086Z,57.92
2023-02-06T18:22:21.448Z,59.28
2023-02-06T18:24:49.378Z,60.35
2023-02-06T18:27:18.059Z,61.14
2023-02-06T18:29:51.986Z,61.91
2023-02-06T18:32:19.214Z,63.52
2023-02-06T18:34:46.326Z,61.56
2023-02-06T18:37:13.107Z,56.23
2023-02-06T18:39:39.672Z,55.69
2023-02-06T18:42:24.843Z,57.49
2023-02-06T18:44:51.397Z,59.16
2023-02-06T18:47:19.113Z,60.53
2023-02-06T18:49:46.390Z,61.63
2023-02-06T18:52:13.559Z,63.40
2023-02-06T18:54:40.349Z,61.74
2023-02-06T18:57:07.066Z,56.31
2023-02-06T18:59:34.384Z,55.81
2023-02-06T19:02:01.654Z,57.68
2023-02-06T19:04:28.520Z,59.43
2023-02-06T19:06:55.115Z,60.81
2023-02-06T19:09:21.900Z,62.00
2023-02-06T19:11:51.182Z,64.12
2023-02-06T19:14:23.070Z,62.25
2023-02-06T19:16:51.906Z,57.33
2023-02-06T19:19:21.831Z,57.10
2023-02-06T19:21:48.380Z,59.18
2023-02-06T19:24:19.754Z,60.93
2023-02-06T19:26:46.441Z,62.11
2023-02-06T19:29:19.324Z,63.65
2023-02-06T19:31:50.524Z,60.71
2023-02-06T19:34:17.303Z,55.58
2023-02-06T19:36:44.033Z,56.14
2023-02-06T19:39:12.393Z,58.48
2023-02-06T19:41:39.375Z,60.65
2023-02-06T19:44:11.954Z,62.40
2023-02-06T19:46:39.540Z,63.05
2023-02-06T19:49:08.122Z,58.50
2023-02-06T19:51:40.174Z,56.19
2023-02-06T19:54:07.082Z,58.15
2023-02-06T19:56:43.475Z,60.36
2023-02-06T19:59:18.813Z,61.82
2023-02-06T20:01:50.583Z,63.75
2023-02-06T20:04:19.349Z,60.97
2023-02-06T20:06:46.268Z,55.87
2023-02-06T20:09:14.558Z,56.19
2023-02-06T20:11:42.168Z,58.40
2023-02-06T20:14:10.213Z,60.31
2023-02-06T20:16:39.387Z,61.79
2023-02-06T20:19:14.842Z,63.60
2023-02-06T20:21:45.651Z,61.28
2023-02-06T20:24:20.062Z,55.97
2023-02-06T20:26:49.299Z,56.17
2023-02-06T20:29:37.925Z,58.42
2023-02-06T20:32:06.308Z,60.47
2023-02-06T20:34:34.110Z,62.05
2023-02-06T20:37:01.063Z,63.94
2023-02-06T20:39:28.726Z,60.99
2023-02-06T20:41:55.515Z,55.78
2023-02-06T20:44:22.009Z,56.29
2023-02-06T20:46:48.994Z,58.54
2023-02-06T20:49:23.009Z,60.44
2023-02-06T20:51:49.929Z,61.72
2023-02-06T20:54:18.267Z,63.63
2023-02-06T20:56:45.184Z,61.40
2023-02-06T20:59:14.404Z,56.29
2023-02-06T21:01:41.780Z,56.16
2023-02-06T21:04:11.409Z,58.37
2023-02-06T21:06:38.475Z,60.08
2023-02-06T21:09:06.534Z,61.70
2023-02-06T21:11:39.290Z,63.49
2023-02-06T21:14:05.936Z,61.23
2023-02-06T21:16:34.038Z,56.25
2023-02-06T21:19:01.305Z,56.03
2023-02-06T21:21:28.185Z,58.26
2023-02-06T21:23:57.390Z,60.14
2023-02-06T21:26:25.406Z,61.65
2023-02-06T21:28:53.122Z,63.44
2023-02-06T21:31:24.132Z,61.32
2023-02-06T21:33:51.655Z,56.32
2023-02-06T21:36:20.361Z,56.56
2023-02-06T21:38:46.864Z,58.89
2023-02-06T21:41:16.880Z,60.74
2023-02-06T21:43:44.115Z,62.25
2023-02-06T21:46:12.202Z,63.97
2023-02-06T21:48:39.790Z,60.36
2023-02-06T21:51:12.020Z,55.61
2023-02-06T21:53:39.188Z,56.66
2023-02-06T21:56:19.681Z,58.97
2023-02-06T21:58:47.401Z,60.93
2023-02-06T22:01:21.668Z,62.42
2023-02-06T22:03:48.685Z,63.75
2023-02-06T22:06:15.908Z,59.65
2023-02-06T22:08:47.356Z,55.58
2023-02-06T22:11:24.270Z,57.07
2023-02-06T22:13:52.672Z,59.32
2023-02-06T22:16:21.748Z,61.02
2023-02-06T22:18:49.011Z,62.73
2023-02-06T22:21:19.909Z,62.58
2023-02-06T22:23:48.428Z,57.62
2023-02-06T22:26:17.359Z,56.39
2023-02-06T22:28:44.385Z,58.57
2023-02-06T22:31:23.822Z,60.55
2023-02-06T22:33:51.647Z,62.15
2023-02-06T22:36:22.054Z,63.95
2023-02-06T22:38:57.022Z,61.16
2023-02-06T22:41:23.571Z,55.89
2023-02-06T22:43:50.711Z,56.16
2023-02-06T22:46:38.384Z,58.37
2023-02-06T22:49:07.122Z,60.39
2023-02-06T22:51:34.944Z,61.78
2023-02-06T22:54:01.949Z,63.75
2023-02-06T22:56:36.069Z,61.34
2023-02-06T22:59:09.669Z,56.09
2023-02-06T23:01:40.481Z,56.28
2023-02-06T23:04:12.237Z,58.42
2023-02-06T23:06:39.488Z,60.11
2023-02-06T23:09:08.323Z,61.41
2023-02-06T23:11:35.331Z,63.34
2023-02-06T23:14:05.527Z,61.43
2023-02-06T23:16:34.038Z,56.03
2023-02-06T23:19:03.915Z,56.16
2023-02-06T23:21:33.320Z,58.78
2023-02-06T23:24:00.238Z,60.80
2023-02-06T23:26:27.172Z,62.87
2023-02-06T23:28:57.315Z,62.84
2023-02-06T23:31:25.268Z,57.87
2023-02-06T23:33:52.351Z,56.18
2023-02-06T23:36:22.960Z,58.19
2023-02-06T23:38:50.082Z,60.18
2023-02-06T23:41:19.112Z,61.89
2023-02-06T23:43:56.901Z,63.82
2023-02-06T23:46:24.402Z,61.04
2023-02-06T23:48:51.429Z,55.73
2023-02-06T23:51:19.896Z,56.04
2023-02-06T23:53:47.434Z,58.26
2023-02-06T23:56:18.677Z,59.85
2023-02-06T23:58:45.354Z,61.20
